Time;durP1;ratioP1;P1;durP2;ratioP2;P2;SDS_P1;SDS_P2;PMS_P1;PMS_P2;Temp;Humidity;BMP_temperature;BMP_pressure;BME280_temperature;BME280_humidity;BME280_pressure;Samples;Min_cycle;Max_cycle;Signal;HPM_P1;HPM_P2
2023/06/02 05:45:38;;;;;;;14.50;1.60;;;13.80;77.20;;;;;;5125824;27;20112;-82
2023/06/02 05:48:04;;;;;;;9.43;1.63;;;13.90;80.40;;;;;;5112267;28;20036;-86
2023/06/02 05:50:30;;;;;;;7.60;1.38;;;14.00;80.10;;;;;;5110033;28;20365;-88
2023/06/02 05:52:55;;;;;;;8.82;1.30;;;14.30;81.30;;;;;;5119750;28;20047;-87
2023/06/02 05:55:21;;;;;;;10.23;1.50;;;14.60;81.70;;;;;;5090017;28;20097;-86
2023/06/02 05:57:46;;;;;;;9.65;1.63;;;14.80;78.80;;;;;;5116607;28;20093;-88
2023/06/02 06:00:13;;;;;;;14.23;2.03;;;15.00;77.70;;;;;;5111832;28;20484;-84
2023/06/02 06:02:38;;;;;;;9.38;1.20;;;15.20;74.80;;;;;;5111437;28;20043;-87
2023/06/02 06:05:05;;;;;;;6.18;1.45;;;15.10;74.10;;;;;;5094981;28;20039;-86
2023/06/02 06:07:30;;;;;;;9.68;1.15;;;15.20;75.90;;;;;;5111321;28;20067;-88
2023/06/02 06:09:56;;;;;;;15.32;1.80;;;15.40;75.20;;;;;;5112873;28;20042;-80
2023/06/02 06:12:21;;;;;;;11.60;1.60;;;15.50;74.00;;;;;;5113355;28;20028;-83
2023/06/02 06:14:47;;;;;;;12.88;2.30;;;15.30;72.40;;;;;;5098804;28;20032;-82
2023/06/02 06:17:13;;;;;;;10.80;1.70;;;15.20;73.00;;;;;;5119306;28;20054;-83
2023/06/02 06:19:38;;;;;;;14.80;1.50;;;15.10;72.90;;;;;;5137366;28;20031;-83
2023/06/02 06:22:04;;;;;;;8.55;1.50;;;15.00;73.60;;;;;;5115790;28;20036;-83
2023/06/02 06:24:31;;;;;;;13.05;1.77;;;14.90;74.20;;;;;;5113384;28;20135;-83
2023/06/02 06:26:57;;;;;;;14.05;1.55;;;15.00;74.10;;;;;;5099369;28;20476;-83
2023/06/02 06:29:22;;;;;;;9.98;1.50;;;14.90;73.70;;;;;;5116632;28;20110;-84
2023/06/02 06:31:48;;;;;;;18.65;1.70;;;14.80;73.90;;;;;;5118199;28;20081;-83
2023/06/02 06:34:14;;;;;;;7.93;1.08;;;14.80;74.40;;;;;;5101596;28;20476;-84
2023/06/02 06:36:39;;;;;;;9.05;1.20;;;14.80;75.10;;;;;;5114687;28;20375;-85
2023/06/02 06:39:05;;;;;;;14.43;2.60;;;14.90;74.50;;;;;;5111646;28;20032;-82
2023/06/02 06:41:31;;;;;;;9.52;1.63;;;14.80;74.20;;;;;;5117612;28;20028;-82
2023/06/02 06:43:56;;;;;;;14.82;2.10;;;14.80;74.60;;;;;;5119062;28;20055;-82
2023/06/02 06:46:22;;;;;;;9.63;1.30;;;14.90;74.80;;;;;;5124189;28;20099;-83
2023/06/02 06:48:47;;;;;;;10.63;1.85;;;15.00;74.40;;;;;;5105614;28;20024;-83
2023/06/02 06:51:13;;;;;;;9.00;1.20;;;15.00;74.50;;;;;;5120256;28;20032;-83
2023/06/02 06:53:39;;;;;;;15.40;2.60;;;14.90;74.70;;;;;;5123101;28;20373;-84
2023/06/02 06:56:05;;;;;;;10.35;1.88;;;14.90;75.20;;;;;;5118394;28;20021;-83
2023/06/02 06:58:30;;;;;;;9.32;1.23;;;15.00;75.30;;;;;;5110848;28;20036;-81
2023/06/02 07:00:57;;;;;;;9.43;1.27;;;15.10;75.00;;;;;;5112672;28;20032;-82
2023/06/02 07:03:23;;;;;;;7.68;1.50;;;15.00;75.30;;;;;;5110835;28;20028;-83
2023/06/02 07:05:49;;;;;;;15.52;2.22;;;15.10;75.70;;;;;;5106656;28;20448;-83
2023/06/02 07:08:15;;;;;;;11.18;1.73;;;15.10;75.60;;;;;;5107944;28;20036;-83
2023/06/02 07:10:42;;;;;;;14.10;1.75;;;15.00;75.80;;;;;;5112188;28;20028;-83
2023/06/02 07:13:08;;;;;;;8.48;1.33;;;15.10;76.00;;;;;;5102111;28;20051;-82
2023/06/02 07:15:34;;;;;;;14.80;2.30;;;15.10;76.10;;;;;;5104140;28;20472;-81
2023/06/02 07:17:59;;;;;;;6.93;1.05;;;15.30;76.30;;;;;;5078377;28;20024;-84
2023/06/02 07:20:25;;;;;;;10.48;1.38;;;15.50;76.30;;;;;;5105246;28;20019;-83
2023/06/02 07:22:51;;;;;;;9.82;1.75;;;15.60;75.60;;;;;;5073782;28;20023;-82
2023/06/02 07:25:16;;;;;;;11.65;1.73;;;15.70;75.10;;;;;;5093043;28;20036;-81
2023/06/02 07:27:42;;;;;;;12.00;1.30;;;15.60;75.30;;;;;;5110195;28;20040;-83
2023/06/02 07:30:08;;;;;;;10.70;1.70;;;15.60;75.30;;;;;;5108086;28;20028;-84
2023/06/02 07:32:34;;;;;;;7.38;1.23;;;15.70;75.50;;;;;;5100660;28;20032;-84
2023/06/02 07:35:00;;;;;;;9.63;1.88;;;15.80;74.90;;;;;;5105540;28;20043;-83
2023/06/02 07:37:25;;;;;;;8.23;1.33;;;15.90;74.90;;;;;;5111086;28;20032;-81
2023/06/02 07:39:51;;;;;;;10.80;1.80;;;15.90;74.90;;;;;;5085081;28;20094;-81
2023/06/02 07:42:17;;;;;;;6.72;1.58;;;15.90;74.70;;;;;;5105501;28;20035;-84
2023/06/02 07:44:42;;;;;;;11.95;1.73;;;15.90;75.10;;;;;;5106831;28;20134;-81
2023/06/02 07:47:10;;;;;;;10.95;1.90;;;16.10;74.70;;;;;;5109842;28;20036;-81
2023/06/02 07:49:36;;;;;;;6.15;1.30;;;16.00;74.00;;;;;;5092060;28;20050;-83
2023/06/02 07:52:02;;;;;;;14.73;2.13;;;16.00;74.40;;;;;;5090387;28;20358;-84
2023/06/02 07:54:28;;;;;;;7.32;1.42;;;16.10;74.20;;;;;;5098144;28;20084;-84
2023/06/02 07:56:54;;;;;;;10.25;1.73;;;16.10;74.60;;;;;;5096768;28;20494;-83
2023/06/02 07:59:19;;;;;;;7.60;1.65;;;16.20;74.40;;;;;;5069461;28;20036;-85
2023/06/02 08:01:46;;;;;;;14.48;2.03;;;16.00;74.40;;;;;;5109657;28;20058;-84
2023/06/02 08:04:11;;;;;;;12.80;1.60;;;15.90;74.90;;;;;;5103746;28;20065;-85
2023/06/02 08:06:37;;;;;;;13.25;1.83;;;15.80;75.50;;;;;;5099670;28;20036;-84
2023/06/02 08:09:03;;;;;;;10.73;2.03;;;15.80;75.80;;;;;;5103941;28;20024;-85
2023/06/02 08:11:29;;;;;;;14.65;1.67;;;15.80;75.50;;;;;;5103290;28;20039;-87
2023/06/02 08:13:55;;;;;;;13.00;1.92;;;15.60;76.00;;;;;;5104592;28;20032;-86
2023/06/02 08:16:21;;;;;;;12.95;1.90;;;15.50;76.50;;;;;;5103530;28;20464;-86
2023/06/02 08:18:47;;;;;;;13.52;2.00;;;15.60;76.60;;;;;;5110750;28;20008;-85
2023/06/02 08:21:12;;;;;;;11.73;1.63;;;15.60;76.80;;;;;;5108011;28;20028;-86
2023/06/02 08:23:38;;;;;;;15.95;2.90;;;15.70;76.70;;;;;;5105392;28;20053;-85
2023/06/02 08:26:04;;;;;;;12.50;2.30;;;15.60;76.90;;;;;;5088369;28;20038;-85
2023/06/02 08:28:33;;;;;;;8.38;1.00;;;15.60;77.30;;;;;;5091773;28;20040;-84
2023/06/02 08:31:02;;;;;;;12.82;1.83;;;15.80;77.20;;;;;;5093546;28;20038;-85
2023/06/02 08:33:30;;;;;;;14.93;1.98;;;16.00;76.70;;;;;;5110198;28;20023;-85
2023/06/02 08:35:56;;;;;;;16.40;2.20;;;15.80;76.90;;;;;;5102831;28;20028;-85
2023/06/02 08:38:21;;;;;;;15.50;2.35;;;15.50;77.30;;;;;;5089672;28;20031;-86
2023/06/02 08:40:47;;;;;;;10.93;1.98;;;15.30;78.50;;;;;;5092788;28;20038;-84
2023/06/02 08:43:14;;;;;;;11.18;2.05;;;15.30;78.70;;;;;;5094671;28;20027;-85
2023/06/02 08:45:46;;;;;;;15.60;2.10;;;15.30;78.50;;;;;;5110406;28;20056;-84
2023/06/02 08:48:17;;;;;;;8.27;1.63;;;15.40;78.60;;;;;;5111118;28;20024;-84
2023/06/02 08:50:46;;;;;;;10.20;1.52;;;15.40;78.90;;;;;;5115154;28;20008;-85
2023/06/02 08:53:14;;;;;;;12.52;2.13;;;15.40;78.70;;;;;;5113109;28;20024;-85
2023/06/02 08:55:41;;;;;;;9.70;2.03;;;15.60;78.90;;;;;;5112696;28;20088;-85
2023/06/02 08:58:10;;;;;;;15.20;2.78;;;15.60;78.20;;;;;;5110770;28;20001;-85
2023/06/02 09:00:37;;;;;;;12.15;2.10;;;15.50;78.90;;;;;;5107773;28;20030;-84
2023/06/02 09:03:04;;;;;;;13.52;2.47;;;15.40;78.40;;;;;;5111298;28;20011;-85
2023/06/02 09:05:32;;;;;;;11.10;1.80;;;15.50;78.60;;;;;;5100362;28;20036;-82
2023/06/02 09:08:11;;;;;;;10.32;1.30;;;15.50;78.60;;;;;;5103447;28;20098;-84
2023/06/02 09:10:41;;;;;;;10.63;1.88;;;15.50;78.80;;;;;;5100000;28;20031;-84
2023/06/02 09:13:27;;;;;;;12.25;1.73;;;15.60;78.80;;;;;;5100302;28;20092;-85
2023/06/02 09:16:00;;;;;;;9.65;2.03;;;15.80;78.50;;;;;;5101182;28;20028;-83
2023/06/02 09:18:27;;;;;;;10.25;2.22;;;15.90;78.00;;;;;;5093042;28;20024;-80
2023/06/02 09:20:53;;;;;;;9.73;1.83;;;15.90;78.30;;;;;;5093907;28;20169;-80
2023/06/02 09:23:19;;;;;;;8.32;2.05;;;16.10;78.40;;;;;;5075958;28;20372;-78
2023/06/02 09:25:48;;;;;;;11.82;2.58;;;16.00;77.80;;;;;;5092732;28;20051;-78
2023/06/02 09:28:13;;;;;;;10.05;2.35;;;16.00;77.70;;;;;;5076855;28;20032;-82
2023/06/02 09:30:39;;;;;;;10.20;1.98;;;15.90;77.40;;;;;;5076566;28;20078;-81
2023/06/02 09:33:12;;;;;;;10.48;2.40;;;15.90;77.90;;;;;;5093229;28;20137;-80
2023/06/02 09:35:44;;;;;;;10.35;1.90;;;15.90;77.90;;;;;;5092628;28;20036;-80
2023/06/02 09:38:13;;;;;;;11.98;1.92;;;16.00;78.10;;;;;;5093973;28;20060;-80
2023/06/02 09:40:40;;;;;;;8.82;2.35;;;16.10;78.10;;;;;;5093887;28;20048;-80
2023/06/02 09:43:08;;;;;;;6.20;1.65;;;15.90;78.30;;;;;;5094296;28;20051;-80
2023/06/02 09:45:54;;;;;;;10.50;2.05;;;16.00;78.90;;;;;;5093585;28;20051;-80
2023/06/02 09:48:23;;;;;;;10.80;2.20;;;16.10;79.10;;;;;;5093124;28;20052;-77
2023/06/02 09:50:50;;;;;;;11.55;2.65;;;16.20;78.60;;;;;;5078296;28;20053;-80
2023/06/02 09:53:17;;;;;;;8.70;2.90;;;16.20;78.50;;;;;;5101540;28;20028;-83
2023/06/02 09:55:45;;;;;;;8.38;2.85;;;16.30;78.50;;;;;;5081195;28;20537;-80
2023/06/02 09:58:11;;;;;;;9.75;2.97;;;16.30;78.50;;;;;;5082467;28;20404;-82
2023/06/02 10:00:37;;;;;;;12.63;2.70;;;16.40;77.90;;;;;;5096901;28;20029;-83
2023/06/02 10:03:07;;;;;;;9.02;2.45;;;16.40;78.10;;;;;;5101609;28;20077;-83
2023/06/02 10:05:37;;;;;;;11.80;2.85;;;16.40;78.00;;;;;;5100697;28;20028;-83
2023/06/02 10:08:39;;;;;;;12.95;2.40;;;16.50;77.70;;;;;;5081373;28;20040;-83
2023/06/02 10:11:30;;;;;;;9.05;2.63;;;16.60;78.30;;;;;;5098975;28;20054;-83
2023/06/02 10:13:56;;;;;;;9.60;2.33;;;16.60;78.00;;;;;;5078313;28;20036;-83
2023/06/02 10:16:48;;;;;;;13.57;2.80;;;16.60;78.50;;;;;;5097155;28;20024;-84
2023/06/02 10:20:10;;;;;;;14.18;2.42;;;16.60;78.00;;;;;;5097847;28;20047;-84
2023/06/02 10:23:15;;;;;;;11.13;2.42;;;16.60;78.40;;;;;;5026863;28;20032;-84
2023/06/02 10:25:55;;;;;;;12.48;2.63;;;16.50;77.80;;;;;;5098323;28;20487;-85
2023/06/02 10:28:21;;;;;;;9.63;2.22;;;16.60;78.10;;;;;;5096930;28;20036;-84
2023/06/02 10:30:47;;;;;;;10.50;2.20;;;16.70;77.90;;;;;;5098783;28;20056;-84
2023/06/02 10:33:13;;;;;;;10.55;2.88;;;16.70;78.60;;;;;;5100802;28;20115;-84
2023/06/02 10:35:58;;;;;;;15.25;3.15;;;16.80;77.50;;;;;;5101719;28;20056;-84
2023/06/02 10:38:34;;;;;;;9.23;2.45;;;16.90;77.50;;;;;;5103333;28;20500;-83
2023/06/02 10:41:00;;;;;;;10.75;2.65;;;16.90;77.60;;;;;;5101823;28;20032;-84
2023/06/02 10:43:26;;;;;;;8.75;2.47;;;16.90;77.60;;;;;;5084793;28;20035;-82
2023/06/02 10:45:54;;;;;;;12.63;2.95;;;17.10;77.80;;;;;;5101604;28;20056;-83
2023/06/02 10:48:42;;;;;;;9.77;2.72;;;17.10;78.30;;;;;;5098748;28;20028;-84
2023/06/02 10:51:10;;;;;;;14.63;3.08;;;17.10;77.80;;;;;;5080138;28;20028;-84
2023/06/02 10:53:58;;;;;;;16.38;2.58;;;17.00;78.00;;;;;;5084692;28;20025;-84
2023/06/02 10:56:36;;;;;;;12.35;2.80;;;17.10;77.70;;;;;;5078216;28;20088;-82
2023/06/02 10:59:05;;;;;;;8.35;2.13;;;17.10;77.60;;;;;;5085763;28;20040;-82
2023/06/02 11:01:48;;;;;;;11.43;2.95;;;17.10;77.70;;;;;;5083495;28;20032;-83
2023/06/02 11:04:33;;;;;;;10.10;2.72;;;17.20;77.50;;;;;;5082846;28;20032;-84
2023/06/02 11:07:32;;;;;;;13.80;2.85;;;17.20;77.50;;;;;;5081942;28;20113;-83
2023/06/02 11:10:00;;;;;;;14.43;2.90;;;17.20;77.90;;;;;;5081892;28;20051;-83
2023/06/02 11:12:51;;;;;;;16.67;3.25;;;17.20;77.30;;;;;;5081185;28;20078;-82
2023/06/02 11:15:20;;;;;;;21.10;2.88;;;17.00;78.00;;;;;;5076092;28;20048;-84
2023/06/02 11:17:47;;;;;;;14.05;2.92;;;17.10;79.20;;;;;;5085487;28;20032;-84
2023/06/02 11:20:15;;;;;;;16.50;3.10;;;17.10;78.40;;;;;;5082874;28;20542;-83
2023/06/02 11:22:42;;;;;;;8.27;2.63;;;17.20;78.50;;;;;;5101642;28;20024;-84
2023/06/02 11:25:09;;;;;;;10.80;2.28;;;17.20;77.70;;;;;;5101880;28;20043;-84
2023/06/02 11:27:43;;;;;;;6.88;2.22;;;17.20;78.00;;;;;;5084156;28;20084;-83
2023/06/02 11:30:14;;;;;;;17.30;4.13;;;17.40;78.30;;;;;;5101578;28;20354;-84
2023/06/02 11:32:42;;;;;;;9.82;2.65;;;17.50;77.70;;;;;;5100532;28;20044;-82
2023/06/02 11:35:09;;;;;;;12.80;3.20;;;17.50;78.20;;;;;;5102494;28;20034;-86
2023/06/02 11:37:38;;;;;;;7.70;2.05;;;17.70;79.00;;;;;;5101970;28;20066;-86
2023/06/02 11:40:05;;;;;;;14.65;3.10;;;17.80;78.00;;;;;;5089456;28;20381;-86
2023/06/02 11:42:38;;;;;;;15.98;2.95;;;17.90;76.70;;;;;;5086698;28;20040;-86
2023/06/02 11:45:06;;;;;;;15.65;2.78;;;18.00;77.40;;;;;;5105663;28;20048;-87
2023/06/02 11:47:32;;;;;;;10.07;2.60;;;18.10;76.20;;;;;;5106275;28;20050;-87
2023/06/02 11:49:57;;;;;;;9.63;2.22;;;18.10;76.00;;;;;;5101305;28;20028;-86
2023/06/02 11:52:23;;;;;;;9.05;2.50;;;18.20;76.70;;;;;;5102370;28;20603;-87
2023/06/02 11:54:50;;;;;;;8.27;2.53;;;18.40;76.20;;;;;;5103666;28;20039;-87
2023/06/02 11:57:27;;;;;;;9.80;2.50;;;18.40;75.90;;;;;;5101611;28;20028;-86
2023/06/02 12:00:09;;;;;;;11.48;3.50;;;18.50;75.50;;;;;;5101689;28;20533;-87
2023/06/02 12:02:39;;;;;;;11.10;3.05;;;18.50;75.30;;;;;;5084396;28;20062;-87
2023/06/02 12:05:07;;;;;;;9.50;2.30;;;18.50;75.70;;;;;;5085319;28;20048;-85
2023/06/02 12:07:33;;;;;;;7.30;2.15;;;18.50;76.00;;;;;;5104097;28;20088;-87
2023/06/02 12:09:59;;;;;;;9.55;2.55;;;18.70;76.00;;;;;;5072321;28;20468;-86
2023/06/02 12:12:25;;;;;;;10.48;2.42;;;18.60;74.80;;;;;;5086927;28;20039;-86
2023/06/02 12:14:50;;;;;;;10.95;2.95;;;18.60;75.70;;;;;;5091564;28;20626;-86
2023/06/02 12:17:16;;;;;;;12.35;2.83;;;18.50;75.10;;;;;;5087331;28;20387;-87
2023/06/02 12:19:42;;;;;;;11.93;2.60;;;18.40;75.70;;;;;;5082564;28;20047;-87
2023/06/02 12:22:14;;;;;;;10.23;2.50;;;18.50;76.00;;;;;;5096150;28;20035;-87
2023/06/02 12:24:41;;;;;;;9.82;2.25;;;18.60;75.60;;;;;;5095181;28;20039;-87
2023/06/02 12:27:08;;;;;;;15.43;3.78;;;18.60;75.60;;;;;;5095404;28;20036;-88
2023/06/02 12:29:34;;;;;;;11.65;3.15;;;18.70;75.90;;;;;;5095625;28;20032;-88
2023/06/02 12:32:03;;;;;;;9.15;2.70;;;18.70;75.90;;;;;;5095552;28;20032;-88
2023/06/02 12:34:29;;;;;;;10.77;2.83;;;18.80;75.80;;;;;;5095726;28;20038;-87
2023/06/02 12:36:55;;;;;;;13.23;2.60;;;18.90;76.20;;;;;;5095213;28;20471;-86
2023/06/02 12:39:21;;;;;;;14.07;3.40;;;19.10;76.50;;;;;;5094160;28;20039;-86
2023/06/02 12:41:47;;;;;;;9.98;2.53;;;19.20;74.80;;;;;;5095013;28;20028;-88
2023/06/02 12:44:12;;;;;;;7.70;2.33;;;19.20;75.10;;;;;;5095661;28;20039;-87
2023/06/02 12:46:39;;;;;;;14.23;2.88;;;19.10;74.60;;;;;;5095352;28;20113;-87
2023/06/02 12:49:05;;;;;;;8.35;2.25;;;19.10;75.30;;;;;;5094439;28;20047;-87
2023/06/02 12:51:33;;;;;;;9.45;2.85;;;19.10;75.30;;;;;;5095677;28;20032;-87
2023/06/02 12:53:59;;;;;;;13.75;2.88;;;19.20;74.60;;;;;;5077176;28;20028;-87
2023/06/02 12:56:25;;;;;;;15.93;3.60;;;19.20;75.30;;;;;;5098576;28;20081;-86
2023/06/02 12:58:51;;;;;;;9.48;2.90;;;19.20;75.40;;;;;;5077427;28;20034;-87
2023/06/02 13:01:17;;;;;;;12.93;3.00;;;19.00;75.80;;;;;;5077859;28;20095;-83
2023/06/02 13:03:49;;;;;;;10.10;3.10;;;19.00;76.00;;;;;;5095490;28;20028;-86
2023/06/02 13:06:16;;;;;;;12.45;2.78;;;19.10;76.40;;;;;;5095541;28;20040;-88
2023/06/02 13:08:42;;;;;;;11.55;2.95;;;19.10;75.10;;;;;;5076521;28;20375;-86
2023/06/02 13:11:08;;;;;;;13.35;2.88;;;19.20;76.90;;;;;;5094699;28;20024;-87
2023/06/02 13:13:33;;;;;;;12.90;3.40;;;19.50;75.80;;;;;;5096224;28;20035;-86
2023/06/02 13:15:59;;;;;;;14.32;3.03;;;19.70;75.30;;;;;;5094773;28;20044;-86
2023/06/02 13:18:25;;;;;;;11.50;2.50;;;19.90;74.10;;;;;;5076024;28;20085;-86
2023/06/02 13:20:50;;;;;;;11.65;3.17;;;20.10;74.00;;;;;;5093924;28;20082;-88
2023/06/02 13:23:17;;;;;;;11.93;3.42;;;20.40;73.10;;;;;;5076194;28;20043;-87
2023/06/02 13:25:43;;;;;;;9.07;2.08;;;20.40;72.30;;;;;;5077713;28;20430;-84
2023/06/02 13:28:09;;;;;;;12.55;3.00;;;20.40;72.00;;;;;;5074066;28;20032;-82
2023/06/02 13:30:35;;;;;;;11.23;2.70;;;20.40;71.50;;;;;;5091695;28;20031;-84
2023/06/02 13:33:02;;;;;;;11.98;3.15;;;20.20;72.30;;;;;;5070009;28;20043;-80
2023/06/02 13:35:28;;;;;;;12.38;2.42;;;20.30;72.40;;;;;;5084891;28;20749;-83
2023/06/02 13:37:53;;;;;;;12.90;3.00;;;20.60;73.00;;;;;;5088855;28;20083;-81
2023/06/02 13:40:20;;;;;;;13.98;2.88;;;20.80;72.30;;;;;;5091571;28;20053;-81
2023/06/02 13:42:46;;;;;;;11.65;3.33;;;20.70;70.10;;;;;;5092175;28;20028;-81
2023/06/02 13:45:11;;;;;;;12.95;2.78;;;20.60;70.60;;;;;;5081514;28;20055;-81
2023/06/02 13:47:37;;;;;;;11.35;3.22;;;20.80;70.80;;;;;;5083461;28;20127;-80
2023/06/02 13:50:03;;;;;;;12.82;3.47;;;20.90;70.60;;;;;;5075037;28;20420;-80
2023/06/02 13:52:35;;;;;;;9.65;3.38;;;21.10;70.20;;;;;;5091985;28;20048;-79
2023/06/02 13:55:01;;;;;;;15.13;3.33;;;21.00;69.70;;;;;;5093495;28;20024;-80
2023/06/02 13:57:27;;;;;;;13.32;3.22;;;21.10;70.60;;;;;;5093401;28;20032;-80
2023/06/02 13:59:53;;;;;;;9.18;2.70;;;21.00;71.10;;;;;;5093100;28;20024;-79
2023/06/02 14:02:18;;;;;;;7.60;2.28;;;21.20;70.90;;;;;;5093355;28;20052;-80
2023/06/02 14:04:44;;;;;;;9.18;2.58;;;21.30;69.80;;;;;;5093683;28;20039;-78
2023/06/02 14:07:10;;;;;;;10.40;2.80;;;21.20;69.30;;;;;;5096801;28;20046;-81
2023/06/02 14:09:36;;;;;;;8.30;2.95;;;21.30;69.60;;;;;;5097344;28;20036;-79
2023/06/02 14:12:02;;;;;;;11.43;3.28;;;21.10;68.50;;;;;;5079001;28;20177;-80
2023/06/02 14:14:28;;;;;;;8.55;2.22;;;21.00;69.40;;;;;;5096922;28;20036;-81
2023/06/02 14:16:53;;;;;;;12.15;3.33;;;21.10;70.10;;;;;;5097172;28;20107;-80
2023/06/02 14:19:19;;;;;;;10.27;3.08;;;21.30;70.00;;;;;;5097021;28;20059;-81
2023/06/02 14:21:45;;;;;;;16.08;3.30;;;21.40;68.40;;;;;;5097200;28;20155;-80
2023/06/02 14:24:11;;;;;;;9.57;2.97;;;21.40;68.50;;;;;;5078658;28;20067;-79
2023/06/02 14:26:45;;;;;;;9.65;2.47;;;21.30;68.10;;;;;;5096976;28;20079;-80
2023/06/02 14:29:11;;;;;;;8.70;2.88;;;21.30;68.30;;;;;;5096798;28;20024;-79
2023/06/02 14:31:37;;;;;;;9.90;2.78;;;21.20;67.50;;;;;;5096713;28;20119;-80
2023/06/02 14:34:03;;;;;;;13.25;2.75;;;21.10;67.90;;;;;;5078563;28;20376;-80
2023/06/02 14:36:29;;;;;;;10.73;3.03;;;21.00;68.20;;;;;;5078627;28;20028;-80
2023/06/02 14:38:55;;;;;;;9.32;2.83;;;21.00;68.50;;;;;;5096930;28;20115;-81
2023/06/02 14:41:22;;;;;;;13.13;3.38;;;21.00;68.60;;;;;;5097031;28;20124;-81
2023/06/02 14:43:48;;;;;;;11.10;3.40;;;21.10;69.40;;;;;;5096668;28;20036;-80
2023/06/02 14:46:14;;;;;;;10.63;2.92;;;21.10;68.10;;;;;;5078523;28;20052;-80
2023/06/02 14:48:39;;;;;;;10.75;3.65;;;21.00;68.70;;;;;;5078012;28;20036;-81
2023/06/02 14:51:05;;;;;;;9.25;2.80;;;21.00;68.00;;;;;;5078019;28;20075;-79
2023/06/02 14:53:32;;;;;;;11.38;3.28;;;20.90;68.00;;;;;;5096518;28;20028;-80
2023/06/02 14:55:58;;;;;;;14.38;2.85;;;20.80;68.60;;;;;;5096481;28;20111;-81
2023/06/02 14:58:23;;;;;;;13.25;3.15;;;20.80;69.20;;;;;;5096488;28;20063;-80
2023/06/02 15:00:49;;;;;;;10.02;2.67;;;20.80;69.00;;;;;;5096440;28;20035;-81
2023/06/02 15:03:15;;;;;;;12.85;4.30;;;20.90;68.90;;;;;;5096259;28;20036;-80
2023/06/02 15:05:41;;;;;;;22.77;3.63;;;20.80;68.50;;;;;;5096123;28;20384;-80
2023/06/02 15:08:07;;;;;;;8.07;2.80;;;20.80;69.00;;;;;;5061363;28;20059;-81
2023/06/02 15:10:32;;;;;;;12.27;3.25;;;20.90;69.10;;;;;;5095572;28;20044;-81
2023/06/02 15:12:58;;;;;;;12.30;3.53;;;21.00;69.60;;;;;;5060526;28;20039;-80
2023/06/02 15:15:24;;;;;;;13.27;3.67;;;21.00;68.80;;;;;;5095536;28;20040;-80
2023/06/02 15:17:50;;;;;;;13.07;3.10;;;21.00;68.30;;;;;;5077572;28;20522;-80
2023/06/02 15:20:15;;;;;;;11.48;2.95;;;20.80;68.40;;;;;;5095317;28;20032;-80
2023/06/02 15:22:41;;;;;;;11.65;3.47;;;20.80;69.10;;;;;;5096121;28;20034;-81
2023/06/02 15:25:07;;;;;;;10.98;2.85;;;20.80;68.60;;;;;;5095896;28;20472;-80
2023/06/02 15:27:35;;;;;;;9.13;2.63;;;20.70;68.70;;;;;;5095852;28;20381;-81
2023/06/02 15:30:01;;;;;;;14.27;3.25;;;20.60;69.30;;;;;;5077721;28;20096;-81
2023/06/02 15:32:27;;;;;;;9.07;3.30;;;20.60;69.40;;;;;;5077492;28;20028;-81
2023/06/02 15:34:52;;;;;;;14.32;3.60;;;20.60;69.70;;;;;;5077731;28;20143;-81
2023/06/02 15:37:18;;;;;;;10.32;2.90;;;20.60;69.50;;;;;;5095740;28;20047;-78
2023/06/02 15:39:44;;;;;;;15.55;3.10;;;20.40;70.00;;;;;;5077695;28;20376;-78
2023/06/02 15:42:09;;;;;;;10.65;2.70;;;20.40;70.20;;;;;;5077318;28;20491;-80
2023/06/02 15:44:36;;;;;;;9.82;2.83;;;20.50;70.30;;;;;;5077079;28;20040;-79
2023/06/02 15:47:02;;;;;;;12.77;2.40;;;20.60;70.10;;;;;;5095929;28;20024;-79
2023/06/02 15:49:28;;;;;;;9.65;2.40;;;20.60;70.10;;;;;;5095250;28;20028;-79
2023/06/02 15:51:55;;;;;;;9.45;2.78;;;20.70;70.70;;;;;;5095627;28;20028;-79
2023/06/02 15:54:21;;;;;;;10.70;2.50;;;20.70;70.90;;;;;;5095178;28;20531;-78
2023/06/02 15:56:54;;;;;;;10.38;2.70;;;20.70;70.50;;;;;;5060717;28;20115;-79
2023/06/02 15:59:21;;;;;;;11.18;2.58;;;20.70;70.30;;;;;;5095371;28;20032;-79
2023/06/02 16:01:47;;;;;;;11.25;2.60;;;20.70;70.00;;;;;;5095176;28;20031;-79
2023/06/02 16:04:12;;;;;;;7.35;2.30;;;20.80;69.90;;;;;;5094857;28;20036;-79
2023/06/02 16:06:38;;;;;;;15.43;2.78;;;20.80;70.20;;;;;;5076984;28;20024;-79
2023/06/02 16:09:08;;;;;;;6.55;2.28;;;20.80;69.70;;;;;;5094968;28;20376;-79
2023/06/02 16:11:34;;;;;;;11.82;2.53;;;20.90;69.80;;;;;;5076853;28;20059;-79
2023/06/02 16:14:00;;;;;;;13.77;3.03;;;20.80;69.10;;;;;;5094520;28;20548;-80
2023/06/02 16:16:26;;;;;;;8.35;2.90;;;20.80;69.50;;;;;;5094471;28;20115;-79
2023/06/02 16:18:51;;;;;;;11.75;2.47;;;20.80;69.70;;;;;;5076524;28;20361;-83
2023/06/02 16:21:18;;;;;;;13.68;3.10;;;20.80;69.70;;;;;;5094956;28;20054;-79
2023/06/02 16:23:44;;;;;;;11.15;3.03;;;20.80;69.10;;;;;;5094807;28;20032;-80
2023/06/02 16:26:14;;;;;;;11.75;2.65;;;20.80;69.40;;;;;;5094189;28;20492;-79
2023/06/02 16:28:40;;;;;;;9.95;2.72;;;20.80;69.50;;;;;;5076283;28;20028;-77
2023/06/02 16:31:06;;;;;;;9.80;2.67;;;20.70;69.60;;;;;;5094302;28;20482;-80
2023/06/02 16:33:32;;;;;;;10.32;2.63;;;20.70;69.70;;;;;;5094403;28;20107;-80
2023/06/02 16:35:57;;;;;;;13.25;2.92;;;20.70;69.60;;;;;;5094162;28;20028;-79
2023/06/02 16:38:23;;;;;;;10.90;3.35;;;20.60;69.60;;;;;;5076321;28;20024;-79
2023/06/02 16:40:50;;;;;;;12.95;3.47;;;20.50;69.50;;;;;;5094491;28;20031;-80
2023/06/02 16:43:19;;;;;;;9.18;2.28;;;20.50;69.90;;;;;;5076404;28;20040;-80
2023/06/02 16:45:48;;;;;;;13.43;2.58;;;20.50;69.80;;;;;;5094219;28;20070;-79
2023/06/02 16:48:14;;;;;;;8.57;2.55;;;20.50;69.70;;;;;;5094309;28;20380;-80
2023/06/02 16:50:41;;;;;;;10.80;2.55;;;20.50;69.70;;;;;;5075542;28;20366;-80
2023/06/02 16:53:06;;;;;;;10.93;2.70;;;20.50;69.70;;;;;;5075877;28;20024;-79
2023/06/02 16:55:32;;;;;;;12.52;3.22;;;20.50;70.00;;;;;;5094320;28;20377;-79
2023/06/02 16:57:59;;;;;;;11.13;3.00;;;20.50;69.70;;;;;;5094187;28;20032;-80
2023/06/02 17:00:26;;;;;;;15.82;2.78;;;20.40;69.50;;;;;;5094105;28;20035;-80
2023/06/02 17:02:51;;;;;;;9.57;2.45;;;20.40;70.20;;;;;;5075980;28;20036;-80
2023/06/02 17:05:17;;;;;;;13.07;2.67;;;20.40;70.50;;;;;;5093745;28;20032;-80
2023/06/02 17:07:43;;;;;;;11.60;2.45;;;20.40;70.90;;;;;;5075781;28;20540;-80
2023/06/02 17:10:09;;;;;;;9.20;2.65;;;20.40;70.10;;;;;;5075712;28;20028;-80
2023/06/02 17:12:34;;;;;;;14.27;2.78;;;20.50;70.40;;;;;;5093809;28;20427;-80
2023/06/02 17:15:00;;;;;;;13.35;2.47;;;20.50;70.20;;;;;;5093650;28;20039;-79
2023/06/02 17:17:25;;;;;;;12.90;2.65;;;20.40;70.00;;;;;;5075924;28;20035;-79
2023/06/02 17:19:51;;;;;;;11.15;2.25;;;20.40;70.10;;;;;;5075240;28;20028;-79
2023/06/02 17:22:17;;;;;;;13.00;2.60;;;20.40;70.40;;;;;;5093496;28;20032;-78
2023/06/02 17:24:43;;;;;;;9.65;2.55;;;20.40;70.20;;;;;;5093328;28;20020;-79
2023/06/02 17:27:10;;;;;;;14.85;3.30;;;20.30;70.40;;;;;;5093778;28;20032;-79
2023/06/02 17:29:35;;;;;;;9.93;3.17;;;20.20;70.80;;;;;;5058654;28;20032;-79
2023/06/02 17:32:02;;;;;;;16.48;3.05;;;20.10;70.80;;;;;;5093400;28;20084;-80
2023/06/02 17:34:28;;;;;;;9.00;2.85;;;20.20;70.90;;;;;;5075541;28;20194;-81
2023/06/02 17:36:54;;;;;;;12.20;2.55;;;20.20;70.50;;;;;;5059198;28;20486;-79
2023/06/02 17:39:21;;;;;;;9.45;2.92;;;20.30;70.40;;;;;;5075128;28;20040;-80
2023/06/02 17:41:46;;;;;;;12.77;2.30;;;20.30;70.50;;;;;;5093331;28;20032;-80
2023/06/02 17:44:12;;;;;;;13.13;2.80;;;20.30;70.40;;;;;;5075029;28;20043;-79
2023/06/02 17:46:37;;;;;;;10.57;2.42;;;20.20;70.60;;;;;;5093011;28;20052;-80
2023/06/02 17:49:03;;;;;;;7.03;1.88;;;20.20;70.70;;;;;;5074835;28;20028;-80
2023/06/02 17:51:29;;;;;;;7.30;1.60;;;20.20;70.80;;;;;;5093459;28;20153;-80
2023/06/02 17:53:54;;;;;;;7.65;1.67;;;20.30;70.70;;;;;;5093479;28;20024;-79
2023/06/02 17:56:21;;;;;;;19.13;2.95;;;20.40;70.70;;;;;;5093570;28;20085;-80
2023/06/02 17:58:47;;;;;;;12.15;2.35;;;20.40;70.40;;;;;;5093560;28;20028;-80
2023/06/02 18:01:12;;;;;;;9.43;2.60;;;20.30;70.40;;;;;;5075452;28;20039;-80
2023/06/02 18:03:38;;;;;;;9.43;2.72;;;20.30;70.60;;;;;;5093234;28;20029;-79
2023/06/02 18:06:04;;;;;;;11.50;3.58;;;20.20;70.80;;;;;;5093383;28;20032;-80
2023/06/02 18:08:30;;;;;;;11.07;2.75;;;20.20;70.90;;;;;;5093291;28;20032;-80
2023/06/02 18:10:57;;;;;;;8.23;2.20;;;20.20;71.00;;;;;;5093352;28;20039;-80
2023/06/02 18:13:23;;;;;;;12.68;2.15;;;20.20;71.00;;;;;;5093073;28;20056;-80
2023/06/02 18:15:49;;;;;;;10.82;2.20;;;20.30;70.60;;;;;;5059850;28;20032;-78
2023/06/02 18:18:15;;;;;;;9.10;2.50;;;20.20;70.80;;;;;;5094671;28;20028;-79
2023/06/02 18:20:41;;;;;;;12.35;2.42;;;20.20;70.80;;;;;;5093647;28;20034;-79
2023/06/02 18:23:06;;;;;;;13.05;2.95;;;20.20;70.40;;;;;;5093058;28;20095;-80
2023/06/02 18:25:32;;;;;;;10.23;2.08;;;20.10;70.70;;;;;;5075331;28;20044;-80
2023/06/02 18:27:58;;;;;;;12.38;4.05;;;20.10;71.20;;;;;;5093206;28;20058;-80